createdAt,value
2018-02-21T00:00:44.102Z,-1.17
2018-02-21T00:01:44.118Z,-1.32
2018-02-21T00:02:44.113Z,-1.25
2018-02-21T00:03:44.117Z,-1.35
2018-02-21T00:04:44.131Z,-1.21
2018-02-21T00:05:44.129Z,-1.29
2018-02-21T00:06:44.145Z,-1.30
2018-02-21T00:07:44.150Z,-1.30
2018-02-21T00:08:44.162Z,-1.24
2018-02-21T00:09:44.173Z,-1.18
2018-02-21T00:10:44.173Z,-1.25
2018-02-21T00:11:44.187Z,-1.24
2018-02-21T00:12:44.189Z,-1.27
2018-02-21T00:13:44.201Z,-1.27
2018-02-21T00:14:44.216Z,-1.27
2018-02-21T00:15:44.221Z,-1.25
2018-02-21T00:16:44.232Z,-1.29
2018-02-21T00:17:44.251Z,-1.25
2018-02-21T00:18:44.244Z,-1.30
2018-02-21T00:19:44.272Z,-1.32
2018-02-21T00:20:44.266Z,-1.29
2018-02-21T00:21:44.271Z,-1.32
2018-02-21T00:22:44.278Z,-1.27
2018-02-21T00:23:44.276Z,-1.27
2018-02-21T00:24:44.294Z,-1.22
2018-02-21T00:25:44.296Z,-1.30
2018-02-21T00:26:44.306Z,-1.32
2018-02-21T00:27:44.317Z,-1.27
2018-02-21T00:28:44.323Z,-1.30
2018-02-21T00:29:44.329Z,-1.30
2018-02-21T00:30:44.344Z,-1.25
2018-02-21T00:31:44.347Z,-1.33
2018-02-21T00:32:44.364Z,-1.33
2018-02-21T00:33:44.370Z,-1.33
2018-02-21T00:34:44.376Z,-1.32
2018-02-21T00:35:44.391Z,-1.30
2018-02-21T00:36:44.399Z,-1.38
2018-02-21T00:37:44.401Z,-1.38
2018-02-21T00:38:44.416Z,-1.35
2018-02-21T00:39:44.423Z,-1.29
2018-02-21T00:40:44.437Z,-1.35
2018-02-21T00:41:44.429Z,-1.40
2018-02-21T00:42:44.439Z,-1.36
2018-02-21T00:43:44.440Z,-1.38
2018-02-21T00:44:44.456Z,-1.46
2018-02-21T00:45:44.467Z,-1.48
2018-02-21T00:46:44.468Z,-1.45
2018-02-21T00:47:44.483Z,-1.50
2018-02-21T00:48:44.492Z,-1.45
2018-02-21T00:49:44.497Z,-1.42
2018-02-21T00:50:44.515Z,-1.48
2018-02-21T00:51:44.511Z,-1.45
2018-02-21T00:52:44.529Z,-1.43
2018-02-21T00:53:44.533Z,-1.45
2018-02-21T00:54:44.541Z,-1.48
2018-02-21T00:55:44.556Z,-1.40
2018-02-21T00:56:44.566Z,-1.54
2018-02-21T00:57:44.558Z,-1.46
2018-02-21T00:58:44.584Z,-1.50
2018-02-21T00:59:44.573Z,-1.50
2018-02-21T01:00:44.592Z,-1.51
2018-02-21T01:01:44.594Z,-1.53
2018-02-21T01:02:44.608Z,-1.50
2018-02-21T01:03:44.615Z,-1.48
2018-02-21T01:04:44.619Z,-1.46
2018-02-21T01:05:44.628Z,-1.60
2018-02-21T01:06:44.647Z,-1.54
2018-02-21T01:07:44.643Z,-1.54
2018-02-21T01:08:44.680Z,-1.56
2018-02-21T01:09:44.665Z,-1.61
2018-02-21T01:10:44.670Z,-1.60
2018-02-21T01:11:44.686Z,-1.60
2018-02-21T01:12:44.705Z,-1.61
2018-02-21T01:13:44.684Z,-1.60
2018-02-21T01:14:44.697Z,-1.63
2018-02-21T01:15:44.698Z,-1.66
2018-02-21T01:16:44.711Z,-1.64
2018-02-21T01:17:44.724Z,-1.63
2018-02-21T01:18:44.732Z,-1.66
2018-02-21T01:19:44.756Z,-1.61
2018-02-21T01:20:44.747Z,-1.61
2018-02-21T01:21:44.758Z,-1.66
2018-02-21T01:22:44.769Z,-1.68
2018-02-21T01:23:44.770Z,-1.71
2018-02-21T01:24:44.782Z,-1.64
2018-02-21T01:25:44.795Z,-1.72
2018-02-21T01:26:44.807Z,-1.66
2018-02-21T01:27:44.802Z,-1.64
2018-02-21T01:28:44.803Z,-1.71
2018-02-21T01:29:44.810Z,-1.76
2018-02-21T01:30:44.861Z,-1.66
2018-02-21T01:31:44.835Z,-1.68
2018-02-21T01:32:44.843Z,-1.72
2018-02-21T01:33:44.852Z,-1.66
2018-02-21T01:34:44.864Z,-1.69
2018-02-21T01:35:44.880Z,-1.68
2018-02-21T01:36:44.873Z,-1.76
2018-02-21T01:37:44.881Z,-1.69
2018-02-21T01:38:44.902Z,-1.76
2018-02-21T01:39:44.906Z,-1.74
2018-02-21T01:40:44.916Z,-1.76
2018-02-21T01:41:44.916Z,-1.79
2018-02-21T01:42:44.922Z,-1.78
2018-02-21T01:43:44.929Z,-1.72
2018-02-21T01:44:44.939Z,-1.76
2018-02-21T01:45:44.940Z,-1.69
2018-02-21T01:46:44.957Z,-1.75
2018-02-21T01:47:44.960Z,-1.74
2018-02-21T01:48:44.981Z,-1.66
2018-02-21T01:49:44.994Z,-1.72
2018-02-21T01:50:44.996Z,-1.75
2018-02-21T01:51:45.000Z,-1.75
2018-02-21T01:52:45.003Z,-1.79
2018-02-21T01:53:45.011Z,-1.81
2018-02-21T01:54:45.013Z,-1.76
2018-02-21T01:55:45.022Z,-1.79
2018-02-21T01:56:45.041Z,-1.81
2018-02-21T01:57:45.041Z,-1.86
2018-02-21T01:58:45.052Z,-1.81
2018-02-21T01:59:45.059Z,-1.86
2018-02-21T02:00:45.069Z,-1.84
2018-02-21T02:01:45.077Z,-1.84
2018-02-21T02:02:45.091Z,-1.84
2018-02-21T02:03:45.089Z,-1.78
2018-02-21T02:04:45.108Z,-1.78
2018-02-21T02:05:45.110Z,-1.81
2018-02-21T02:06:45.127Z,-1.81
2018-02-21T02:07:45.118Z,-1.84
2018-02-21T02:08:45.125Z,-1.86
2018-02-21T02:09:45.135Z,-1.86
2018-02-21T02:10:45.147Z,-1.87
2018-02-21T02:11:45.149Z,-1.76
2018-02-21T02:12:45.166Z,-1.81
2018-02-21T02:13:45.169Z,-1.87
2018-02-21T02:14:45.179Z,-1.86
2018-02-21T02:15:45.192Z,-1.89
2018-02-21T02:16:45.197Z,-1.93
2018-02-21T02:17:45.200Z,-1.96
2018-02-21T02:18:45.213Z,-2.04
2018-02-21T02:19:45.221Z,-1.89
2018-02-21T02:20:45.222Z,-1.93
2018-02-21T02:21:45.228Z,-1.93
2018-02-21T02:22:45.243Z,-2.02
2018-02-21T02:23:45.245Z,-1.96
2018-02-21T02:24:45.257Z,-1.99
2018-02-21T02:25:45.264Z,-2.02
2018-02-21T02:26:45.276Z,-2.07
2018-02-21T02:27:45.278Z,-1.96
2018-02-21T02:28:45.312Z,-2.04
2018-02-21T02:29:45.302Z,-2.07
2018-02-21T02:30:45.304Z,-2.05
2018-02-21T02:31:45.308Z,-2.00
2018-02-21T02:32:45.312Z,-2.05
2018-02-21T02:33:45.334Z,-2.07
2018-02-21T02:34:45.337Z,-2.07
2018-02-21T02:35:45.335Z,-2.14
2018-02-21T02:36:45.354Z,-2.13
2018-02-21T02:37:45.357Z,-2.05
2018-02-21T02:38:45.361Z,-2.14
2018-02-21T02:39:45.376Z,-2.10
2018-02-21T02:40:45.388Z,-2.05
2018-02-21T02:41:45.390Z,-2.14
2018-02-21T02:42:45.403Z,-2.08
2018-02-21T02:43:45.394Z,-2.10
2018-02-21T02:44:45.418Z,-2.14
2018-02-21T02:45:45.423Z,-2.15
2018-02-21T02:46:45.422Z,-2.17
2018-02-21T02:47:45.430Z,-2.14
2018-02-21T02:48:45.449Z,-2.13
2018-02-21T02:49:45.460Z,-2.22
2018-02-21T02:50:45.461Z,-2.15
2018-02-21T02:51:45.472Z,-2.15
2018-02-21T02:52:45.481Z,-2.17
2018-02-21T02:53:45.476Z,-2.15
2018-02-21T02:54:45.496Z,-2.22
2018-02-21T02:55:45.494Z,-2.13
2018-02-21T02:56:45.511Z,-2.22
2018-02-21T02:57:45.514Z,-2.25
2018-02-21T02:58:45.527Z,-2.11
2018-02-21T02:59:45.534Z,-2.23
2018-02-21T03:00:45.535Z,-2.26
2018-02-21T03:01:45.544Z,-2.18
2018-02-21T03:02:45.566Z,-2.25
2018-02-21T03:03:45.562Z,-2.26
2018-02-21T03:04:45.566Z,-2.23
2018-02-21T03:05:45.569Z,-2.28
2018-02-21T03:06:45.575Z,-2.34
2018-02-21T03:07:45.587Z,-2.28
2018-02-21T03:08:45.601Z,-2.26
2018-02-21T03:09:45.603Z,-2.29
2018-02-21T03:10:45.620Z,-2.23
2018-02-21T03:11:45.620Z,-2.36
2018-02-21T03:12:45.637Z,-2.32
2018-02-21T03:13:45.642Z,-2.39
2018-02-21T03:14:45.647Z,-2.25
2018-02-21T03:15:45.645Z,-2.26
2018-02-21T03:16:45.650Z,-2.29
2018-02-21T03:17:45.658Z,-2.36
2018-02-21T03:18:45.679Z,-2.37
2018-02-21T03:19:45.690Z,-2.32
2018-02-21T03:20:45.696Z,-2.33
2018-02-21T03:21:45.698Z,-2.26
2018-02-21T03:22:45.708Z,-2.26
2018-02-21T03:23:45.717Z,-2.29
2018-02-21T03:24:45.729Z,-2.33
2018-02-21T03:25:45.719Z,-2.28
2018-02-21T03:26:45.740Z,-2.25
2018-02-21T03:27:45.751Z,-2.33
2018-02-21T03:28:45.754Z,-2.26
2018-02-21T03:29:45.789Z,-2.15
2018-02-21T03:30:45.776Z,-2.33
2018-02-21T03:31:45.776Z,-2.25
2018-02-21T03:32:45.783Z,-2.20
2018-02-21T03:33:45.790Z,-2.26
2018-02-21T03:34:45.811Z,-2.23
2018-02-21T03:35:45.800Z,-2.36
2018-02-21T03:36:45.808Z,-2.29
2018-02-21T03:37:45.817Z,-2.36
2018-02-21T03:38:45.828Z,-2.22
2018-02-21T03:39:45.833Z,-2.23
2018-02-21T03:40:45.850Z,-2.33
2018-02-21T03:41:45.849Z,-2.25
2018-02-21T03:42:45.867Z,-2.25
2018-02-21T03:43:45.870Z,-2.25
2018-02-21T03:44:45.882Z,-2.33
2018-02-21T03:45:45.880Z,-2.28
2018-02-21T03:46:45.885Z,-2.28
2018-02-21T03:47:45.892Z,-2.26
2018-02-21T03:48:45.902Z,-2.32
2018-02-21T03:49:45.912Z,-2.28
2018-02-21T03:50:45.937Z,-2.29
2018-02-21T03:51:45.931Z,-2.34
2018-02-21T03:52:45.945Z,-2.36
2018-02-21T03:53:45.948Z,-2.26
2018-02-21T03:54:45.971Z,-2.39
2018-02-21T03:55:45.963Z,-2.36
2018-02-21T03:56:45.964Z,-2.42
2018-02-21T03:57:46.265Z,-2.36
2018-02-21T03:58:45.978Z,-2.37
2018-02-21T03:59:45.988Z,-2.32
2018-02-21T04:00:45.999Z,-2.29
2018-02-21T04:01:46.009Z,-2.36
2018-02-21T04:02:46.011Z,-2.34
2018-02-21T04:03:46.025Z,-2.34
2018-02-21T04:04:46.031Z,-2.39
2018-02-21T04:05:46.027Z,-2.39
2018-02-21T04:06:46.035Z,-2.34
2018-02-21T04:07:46.049Z,-2.36
2018-02-21T04:08:46.054Z,-2.36
2018-02-21T04:09:46.064Z,-2.26
2018-02-21T04:10:46.079Z,-2.36
2018-02-21T04:11:46.083Z,-2.33
2018-02-21T04:12:46.094Z,-2.28
2018-02-21T04:13:46.100Z,-2.29
2018-02-21T04:14:46.100Z,-2.26
2018-02-21T04:15:46.100Z,-2.26
2018-02-21T04:16:46.119Z,-2.29
2018-02-21T04:17:46.120Z,-2.25
2018-02-21T04:18:46.126Z,-2.34
2018-02-21T04:19:46.142Z,-2.28
2018-02-21T04:20:46.149Z,-2.34
2018-02-21T04:21:46.154Z,-2.26
2018-02-21T04:22:46.168Z,-2.26
2018-02-21T04:23:46.162Z,-2.34
2018-02-21T04:24:46.174Z,-2.37
2018-02-21T04:25:46.182Z,-2.37
2018-02-21T04:26:46.199Z,-2.33
2018-02-21T04:27:46.203Z,-2.37
2018-02-21T04:28:46.205Z,-2.36
2018-02-21T04:29:46.217Z,-2.36
2018-02-21T04:30:46.241Z,-2.36
2018-02-21T04:31:46.233Z,-2.34
2018-02-21T04:32:46.245Z,-2.50
2018-02-21T04:33:46.241Z,-2.40
2018-02-21T04:34:46.248Z,-2.40
2018-02-21T04:35:46.261Z,-2.40
2018-02-21T04:36:46.262Z,-2.37
2018-02-21T04:37:46.309Z,-2.36
2018-02-21T04:38:46.284Z,-2.36
2018-02-21T04:39:46.293Z,-2.37
2018-02-21T04:40:46.305Z,-2.37
2018-02-21T04:41:46.304Z,-2.33
2018-02-21T04:42:46.306Z,-2.37
2018-02-21T04:43:46.320Z,-2.39
2018-02-21T04:44:46.325Z,-2.37
2018-02-21T04:45:46.331Z,-2.47
2018-02-21T04:46:46.344Z,-2.40
2018-02-21T04:47:46.345Z,-2.40
2018-02-21T04:48:46.360Z,-2.39
2018-02-21T04:49:46.374Z,-2.40
2018-02-21T04:50:46.384Z,-2.37
2018-02-21T04:51:46.376Z,-2.44
2018-02-21T04:52:46.396Z,-2.42
2018-02-21T04:53:46.389Z,-2.39
2018-02-21T04:54:46.404Z,-2.45
2018-02-21T04:55:46.408Z,-2.47
2018-02-21T04:56:46.414Z,-2.45
2018-02-21T04:57:46.426Z,-2.45
2018-02-21T04:58:46.438Z,-2.45
2018-02-21T04:59:46.445Z,-2.51
2018-02-21T05:00:46.448Z,-2.52
2018-02-21T05:01:46.453Z,-2.47
2018-02-21T05:02:46.470Z,-2.37
2018-02-21T05:03:46.474Z,-2.40
2018-02-21T05:04:46.479Z,-2.40
2018-02-21T05:05:46.482Z,-2.36
2018-02-21T05:06:46.512Z,-2.39
2018-02-21T05:07:46.502Z,-2.42
2018-02-21T05:08:46.521Z,-2.40
2018-02-21T05:09:46.512Z,-2.40
2018-02-21T05:10:46.516Z,-2.37
2018-02-21T05:11:46.528Z,-2.45
2018-02-21T05:12:46.533Z,-2.39
2018-02-21T05:13:46.542Z,-2.48
2018-02-21T05:14:46.562Z,-2.45
2018-02-21T05:15:46.564Z,-2.39
2018-02-21T05:16:46.575Z,-2.37
2018-02-21T05:17:46.576Z,-2.37
2018-02-21T05:18:46.572Z,-2.40
2018-02-21T05:19:46.589Z,-2.45
2018-02-21T05:20:46.600Z,-2.42
2018-02-21T05:21:46.602Z,-2.37
2018-02-21T05:22:46.620Z,-2.40
2018-02-21T05:23:46.618Z,-2.39
2018-02-21T05:24:46.635Z,-2.36
2018-02-21T05:25:46.638Z,-2.36
2018-02-21T05:26:46.655Z,-2.42
2018-02-21T05:27:46.648Z,-2.34
2018-02-21T05:28:46.648Z,-2.37
2018-02-21T05:29:46.657Z,-2.34
2018-02-21T05:30:46.676Z,-2.36
2018-02-21T05:31:46.696Z,-2.34
2018-02-21T05:32:46.693Z,-2.39
2018-02-21T05:33:46.700Z,-2.33
2018-02-21T05:34:46.709Z,-2.39
2018-02-21T05:35:46.717Z,-2.39
2018-02-21T05:36:46.708Z,-2.23
2018-02-21T05:37:46.716Z,-2.22
2018-02-21T05:38:46.748Z,-2.18
2018-02-21T05:39:46.739Z,-2.28
2018-02-21T05:40:46.749Z,-2.32
2018-02-21T05:41:46.761Z,-2.33
2018-02-21T05:42:46.766Z,-2.25
2018-02-21T05:43:46.779Z,-2.29
2018-02-21T05:44:46.787Z,-2.28
2018-02-21T05:45:46.780Z,-2.28
2018-02-21T05:46:46.791Z,-2.26
2018-02-21T05:47:46.792Z,-2.36
2018-02-21T05:48:46.810Z,-2.23
2018-02-21T05:49:46.818Z,-2.26
2018-02-21T05:50:46.831Z,-2.29
2018-02-21T05:51:46.837Z,-2.25
2018-02-21T05:52:46.847Z,-2.29
2018-02-21T05:53:46.851Z,-2.25
2018-02-21T05:54:46.858Z,-2.29
2018-02-21T05:55:46.853Z,-2.28
2018-02-21T05:56:46.877Z,-2.26
2018-02-21T05:57:46.874Z,-2.25
2018-02-21T05:58:46.877Z,-2.33
2018-02-21T05:59:46.946Z,-2.34
2018-02-21T06:00:46.903Z,-2.29
2018-02-21T06:01:46.911Z,-2.23
2018-02-21T06:02:46.927Z,-2.23
2018-02-21T06:03:46.915Z,-2.29
2018-02-21T06:04:46.922Z,-2.28
2018-02-21T06:05:46.933Z,-2.28
2018-02-21T06:06:46.942Z,-2.29
2018-02-21T06:07:46.954Z,-2.32
2018-02-21T06:08:46.962Z,-2.26
2018-02-21T06:09:46.968Z,-2.32
2018-02-21T06:10:46.984Z,-2.33
2018-02-21T06:11:46.982Z,-2.39
2018-02-21T06:12:47.005Z,-2.34
2018-02-21T06:13:46.991Z,-2.28
2018-02-21T06:14:47.001Z,-2.32
2018-02-21T06:15:47.012Z,-2.39
2018-02-21T06:16:47.025Z,-2.36
2018-02-21T06:17:47.022Z,-2.39
2018-02-21T06:18:47.047Z,-2.34
2018-02-21T06:19:47.050Z,-2.39
2018-02-21T06:20:47.063Z,-2.37
2018-02-21T06:21:47.065Z,-2.34
2018-02-21T06:22:47.075Z,-2.44
2018-02-21T06:23:47.070Z,-2.36
2018-02-21T06:24:47.070Z,-2.34
2018-02-21T06:25:47.082Z,-2.44
2018-02-21T06:26:47.102Z,-2.36
2018-02-21T06:27:47.099Z,-2.40
2018-02-21T06:28:47.120Z,-2.47
2018-02-21T06:29:47.126Z,-2.40
2018-02-21T06:30:47.141Z,-2.36
2018-02-21T06:31:47.141Z,-2.51
2018-02-21T06:32:47.137Z,-2.42
2018-02-21T06:33:47.143Z,-2.44
2018-02-21T06:34:47.157Z,-2.36
2018-02-21T06:35:47.165Z,-2.40
2018-02-21T06:36:47.176Z,-2.40
2018-02-21T06:37:47.180Z,-2.34
2018-02-21T06:38:47.189Z,-2.36
2018-02-21T06:39:47.200Z,-2.37
2018-02-21T06:40:47.207Z,-2.37
2018-02-21T06:41:47.205Z,-2.39
2018-02-21T06:42:47.218Z,-2.34
2018-02-21T06:43:47.268Z,-2.42
2018-02-21T06:44:47.232Z,-2.39
2018-02-21T06:45:47.237Z,-2.39
2018-02-21T06:46:47.241Z,-2.33
2018-02-21T06:47:47.256Z,-2.29
2018-02-21T06:48:47.272Z,-2.29
2018-02-21T06:49:47.282Z,-2.28
2018-02-21T06:50:47.283Z,-2.25
2018-02-21T06:51:47.287Z,-2.34
2018-02-21T06:52:47.308Z,-2.20
2018-02-21T06:53:47.298Z,-2.26
2018-02-21T06:54:47.302Z,-2.23
2018-02-21T06:55:47.315Z,-2.17
2018-02-21T06:56:47.318Z,-2.18
2018-02-21T06:57:47.332Z,-2.17
2018-02-21T06:58:47.340Z,-2.17
2018-02-21T06:59:47.346Z,-2.25
2018-02-21T07:00:47.364Z,-2.11
2018-02-21T07:01:47.405Z,-2.05
2018-02-21T07:02:47.383Z,-2.04
2018-02-21T07:03:47.382Z,-2.04
2018-02-21T07:04:47.402Z,-1.96
2018-02-21T07:05:47.394Z,-1.96
2018-02-21T07:06:47.398Z,-1.97
2018-02-21T07:07:47.414Z,-1.92
2018-02-21T07:08:47.412Z,-1.94
2018-02-21T07:09:47.426Z,-1.87
2018-02-21T07:10:47.442Z,-1.82
2018-02-21T07:11:47.440Z,-1.81
2018-02-21T07:12:47.459Z,-1.76
2018-02-21T07:13:47.464Z,-1.82
2018-02-21T07:14:47.475Z,-1.63
2018-02-21T07:15:47.484Z,-1.76
2018-02-21T07:16:47.495Z,-1.68
2018-02-21T07:17:47.499Z,-1.63
2018-02-21T07:18:47.516Z,-1.60
2018-02-21T07:19:47.523Z,-1.58
2018-02-21T07:20:47.530Z,-1.46
2018-02-21T07:21:47.538Z,-1.46
2018-02-21T07:22:47.540Z,-1.40
2018-02-21T07:23:47.552Z,-1.42
2018-02-21T07:24:47.551Z,-1.39
2018-02-21T07:25:47.555Z,-1.38
2018-02-21T07:26:47.566Z,-1.38
2018-02-21T07:27:47.570Z,-1.35
2018-02-21T07:28:47.589Z,-1.33
2018-02-21T07:29:47.591Z,-1.27
2018-02-21T07:30:47.600Z,-1.25
2018-02-21T07:31:47.612Z,-1.30
2018-02-21T07:32:47.624Z,-1.29
2018-02-21T07:33:47.626Z,-1.15
2018-02-21T07:34:47.654Z,-1.18
2018-02-21T07:35:47.643Z,-1.21
2018-02-21T07:36:47.663Z,-1.12
2018-02-21T07:37:47.664Z,-1.11
2018-02-21T07:38:47.687Z,-1.09
2018-02-21T07:39:47.681Z,-1.07
2018-02-21T07:40:47.690Z,-1.04
2018-02-21T07:41:47.694Z,-0.99
2018-02-21T07:42:47.714Z,-0.89
2018-02-21T07:43:47.714Z,-0.87
2018-02-21T07:44:47.726Z,-0.93
2018-02-21T07:45:47.736Z,-0.93
2018-02-21T07:46:47.740Z,-0.93
2018-02-21T07:47:47.750Z,-0.85
2018-02-21T07:48:47.757Z,-0.80
2018-02-21T07:49:47.765Z,-0.84
2018-02-21T07:50:47.789Z,-0.74
2018-02-21T07:51:47.782Z,-0.72
2018-02-21T07:52:47.795Z,-0.70
2018-02-21T07:53:47.804Z,-0.63
2018-02-21T07:54:47.809Z,-0.69
2018-02-21T07:55:47.823Z,-0.60
2018-02-21T07:56:47.830Z,-0.56
2018-02-21T07:57:47.838Z,-0.59
2018-02-21T07:58:47.852Z,-0.48
2018-02-21T07:59:47.858Z,-0.46
2018-02-21T08:00:47.866Z,-0.48
2018-02-21T08:01:47.876Z,-0.44
2018-02-21T08:02:47.889Z,-0.39
2018-02-21T08:03:47.896Z,-0.42
2018-02-21T08:04:47.899Z,-0.27
2018-02-21T08:05:47.915Z,-0.38
2018-02-21T08:06:47.925Z,-0.28
2018-02-21T08:07:47.924Z,-0.33
2018-02-21T08:08:47.940Z,-0.39
2018-02-21T08:09:47.949Z,-0.24
2018-02-21T08:10:47.958Z,-0.30
2018-02-21T08:11:47.966Z,-0.33
2018-02-21T08:12:47.975Z,-0.27
2018-02-21T08:13:47.981Z,-0.17
2018-02-21T08:14:47.995Z,-0.13
2018-02-21T08:15:48.030Z,-0.10
2018-02-21T08:16:48.029Z,-0.09
2018-02-21T08:17:48.029Z,-0.10
2018-02-21T08:18:48.043Z,-0.06
2018-02-21T08:19:48.055Z,-0.05
2018-02-21T08:20:48.097Z,0.00
2018-02-21T08:21:48.081Z,0.05
2018-02-21T08:22:48.078Z,0.05
2018-02-21T08:23:48.084Z,-0.05
2018-02-21T08:24:48.100Z,0.06
2018-02-21T08:25:48.105Z,0.09
2018-02-21T08:26:48.111Z,0.16
2018-02-21T08:27:48.118Z,0.19
2018-02-21T08:28:48.127Z,0.08
2018-02-21T08:29:48.139Z,0.18
2018-02-21T08:30:48.145Z,0.20
2018-02-21T08:31:48.152Z,0.26
2018-02-21T08:32:48.167Z,0.19
2018-02-21T08:33:48.179Z,0.30
2018-02-21T08:34:48.195Z,0.31
2018-02-21T08:35:48.203Z,0.23
2018-02-21T08:36:48.207Z,0.31
2018-02-21T08:37:48.219Z,0.23
2018-02-21T08:38:48.236Z,0.36
2018-02-21T08:39:48.240Z,0.30
2018-02-21T08:40:48.248Z,0.40
2018-02-21T08:41:48.262Z,0.34
2018-02-21T08:42:48.266Z,0.40
2018-02-21T08:43:48.277Z,0.40
2018-02-21T08:44:48.281Z,0.40
2018-02-21T08:45:48.289Z,0.37
2018-02-21T08:46:48.303Z,0.49
2018-02-21T08:47:48.311Z,0.48
2018-02-21T08:48:48.321Z,0.47
2018-02-21T08:49:48.335Z,0.51
2018-02-21T08:50:48.336Z,0.55
2018-02-21T08:51:48.361Z,0.49
2018-02-21T08:52:48.365Z,0.52
2018-02-21T08:53:48.376Z,0.58
2018-02-21T08:54:48.387Z,0.61
2018-02-21T08:55:48.391Z,0.61
2018-02-21T08:56:48.404Z,0.67
2018-02-21T08:57:48.413Z,0.67
2018-02-21T08:58:48.483Z,0.81
2018-02-21T08:59:48.428Z,0.74
2018-02-21T09:00:48.434Z,0.76
2018-02-21T09:01:48.442Z,0.81
2018-02-21T09:02:48.459Z,0.74
2018-02-21T09:03:48.464Z,0.84
2018-02-21T09:04:48.475Z,0.88
2018-02-21T09:05:48.486Z,0.91
2018-02-21T09:06:48.505Z,0.82
2018-02-21T09:07:48.512Z,0.99
2018-02-21T09:08:48.516Z,1.00
2018-02-21T09:09:48.526Z,0.99
2018-02-21T09:10:48.538Z,1.10
2018-02-21T09:11:48.548Z,0.99
2018-02-21T09:12:48.553Z,1.00
2018-02-21T09:13:48.566Z,1.06
2018-02-21T09:14:48.579Z,1.04
2018-02-21T09:15:48.584Z,1.04
2018-02-21T09:16:48.597Z,1.14
2018-02-21T09:17:48.618Z,1.16
2018-02-21T09:18:48.621Z,1.16
2018-02-21T09:19:48.636Z,1.12
2018-02-21T09:20:48.636Z,1.14
2018-02-21T09:21:48.690Z,1.21
2018-02-21T09:22:48.658Z,1.09
2018-02-21T09:23:48.666Z,1.28
2018-02-21T09:24:48.678Z,1.21
2018-02-21T09:25:48.687Z,1.16
2018-02-21T09:26:48.706Z,1.27
2018-02-21T09:27:48.717Z,1.24
2018-02-21T09:28:48.723Z,1.30
2018-02-21T09:29:48.731Z,1.38
2018-02-21T09:30:48.744Z,1.32
2018-02-21T09:31:48.750Z,1.36
2018-02-21T09:32:48.761Z,1.42
2018-02-21T09:33:48.770Z,1.56
2018-02-21T09:34:48.788Z,1.46
2018-02-21T09:35:48.810Z,1.49
2018-02-21T09:36:48.807Z,1.52
2018-02-21T09:37:48.817Z,1.57
2018-02-21T09:38:48.829Z,1.61
2018-02-21T09:39:48.831Z,1.64
2018-02-21T09:40:48.852Z,1.60
2018-02-21T09:41:48.853Z,1.67
2018-02-21T09:42:48.876Z,1.68
2018-02-21T09:43:48.888Z,1.71
2018-02-21T09:44:48.893Z,1.79
2018-02-21T09:45:48.896Z,1.88
2018-02-21T09:46:48.910Z,1.86
2018-02-21T09:47:48.919Z,1.84
2018-02-21T09:48:48.942Z,1.81
2018-02-21T09:49:48.950Z,1.97
2018-02-21T09:50:48.960Z,1.95
2018-02-21T09:51:48.979Z,2.01
2018-02-21T09:52:48.974Z,2.04
2018-02-21T09:53:48.982Z,2.04
2018-02-21T09:54:49.004Z,2.01
2018-02-21T09:55:49.012Z,2.10
2018-02-21T09:56:49.028Z,2.12
2018-02-21T09:57:49.034Z,2.08
2018-02-21T09:58:49.038Z,2.16
2018-02-21T09:59:49.064Z,2.22
2018-02-21T10:00:49.072Z,2.22
2018-02-21T10:01:49.078Z,2.26
2018-02-21T10:02:49.095Z,2.40
2018-02-21T10:03:49.102Z,2.41
2018-02-21T10:04:49.119Z,2.51
2018-02-21T10:05:49.133Z,2.55
2018-02-21T10:06:49.133Z,2.62
2018-02-21T10:07:49.151Z,2.61
2018-02-21T10:08:49.158Z,2.72
2018-02-21T10:09:49.175Z,2.75
2018-02-21T10:10:49.191Z,2.77
2018-02-21T10:11:49.194Z,2.85
2018-02-21T10:12:49.215Z,2.88
2018-02-21T10:13:49.225Z,2.82
2018-02-21T10:14:49.233Z,2.98
2018-02-21T10:15:49.245Z,2.93
2018-02-21T10:16:49.250Z,3.01
2018-02-21T10:17:49.270Z,3.05
2018-02-21T10:18:49.290Z,3.03
2018-02-21T10:19:49.285Z,3.12
2018-02-21T10:20:49.315Z,3.26
2018-02-21T10:21:49.321Z,3.24
2018-02-21T10:22:49.330Z,3.30
2018-02-21T10:23:49.353Z,3.34
2018-02-21T10:24:49.361Z,3.41
2018-02-21T10:25:49.366Z,3.36
2018-02-21T10:26:49.392Z,3.50
2018-02-21T10:27:49.402Z,3.46
2018-02-21T10:28:49.407Z,3.49
2018-02-21T10:29:49.416Z,3.59
2018-02-21T10:30:49.438Z,3.59
2018-02-21T10:31:49.447Z,3.64
2018-02-21T10:32:49.456Z,3.58
2018-02-21T10:33:49.474Z,3.76
2018-02-21T10:34:49.503Z,3.73
2018-02-21T10:35:49.493Z,3.85
2018-02-21T10:36:49.518Z,3.74
2018-02-21T10:37:49.527Z,3.86
2018-02-21T10:38:49.533Z,3.89
2018-02-21T10:39:49.557Z,3.89
2018-02-21T10:40:49.564Z,4.00
2018-02-21T10:41:49.576Z,4.04
2018-02-21T10:42:49.596Z,4.12
2018-02-21T10:43:49.602Z,4.22
2018-02-21T10:44:49.626Z,4.28
2018-02-21T10:45:49.638Z,4.21
2018-02-21T10:46:49.645Z,4.25
2018-02-21T10:47:49.669Z,4.30
2018-02-21T10:48:49.673Z,4.27
2018-02-21T10:49:49.680Z,4.25
2018-02-21T10:50:49.705Z,4.27
2018-02-21T10:51:49.710Z,4.30
2018-02-21T10:52:49.735Z,4.21
2018-02-21T10:53:49.742Z,4.30
2018-02-21T10:54:49.748Z,4.32
2018-02-21T10:55:49.779Z,4.39
2018-02-21T10:56:49.781Z,4.36
2018-02-21T10:57:49.791Z,4.39
2018-02-21T10:58:49.813Z,4.43
2018-02-21T10:59:49.817Z,4.45
2018-02-21T11:00:49.842Z,4.45
2018-02-21T11:01:49.851Z,4.53
2018-02-21T11:02:49.874Z,4.46
2018-02-21T11:03:49.882Z,4.56
2018-02-21T11:04:49.887Z,4.50
2018-02-21T11:05:49.908Z,4.50
2018-02-21T11:06:49.926Z,4.61
2018-02-21T11:07:49.939Z,4.58
2018-02-21T11:08:49.956Z,4.78
2018-02-21T11:09:49.962Z,4.70
2018-02-21T11:10:49.980Z,4.67
2018-02-21T11:11:49.994Z,4.75
2018-02-21T11:12:50.007Z,4.68
2018-02-21T11:13:50.016Z,4.76
2018-02-21T11:14:50.030Z,4.71
2018-02-21T11:15:50.049Z,4.76
2018-02-21T11:16:50.063Z,4.74
2018-02-21T11:17:50.082Z,4.89
2018-02-21T11:18:50.089Z,4.86
2018-02-21T11:19:50.102Z,4.90
2018-02-21T11:20:50.122Z,4.87
2018-02-21T11:21:50.134Z,4.89
2018-02-21T11:22:50.151Z,4.83
2018-02-21T11:23:50.163Z,4.90
2018-02-21T11:24:50.174Z,4.87
2018-02-21T11:25:50.190Z,4.89
2018-02-21T11:26:50.222Z,4.83
2018-02-21T11:27:50.221Z,4.86
2018-02-21T11:28:50.261Z,4.90
2018-02-21T11:29:50.241Z,4.82
2018-02-21T11:30:50.258Z,4.87
2018-02-21T11:31:50.268Z,4.89
2018-02-21T11:32:50.296Z,4.94
2018-02-21T11:33:50.294Z,4.90
2018-02-21T11:34:50.315Z,4.87
2018-02-21T11:35:50.324Z,4.92
2018-02-21T11:36:50.345Z,4.92
2018-02-21T11:37:50.359Z,4.92
2018-02-21T11:38:50.368Z,5.00
2018-02-21T11:39:50.392Z,4.94
2018-02-21T11:40:50.402Z,4.94
2018-02-21T11:41:50.409Z,4.97
2018-02-21T11:42:50.431Z,5.02
2018-02-21T11:43:50.436Z,4.97
2018-02-21T11:44:50.463Z,5.08
2018-02-21T11:45:50.471Z,5.08
2018-02-21T11:46:50.497Z,5.15
2018-02-21T11:47:50.503Z,5.19
2018-02-21T11:48:50.547Z,5.22
2018-02-21T11:49:50.531Z,5.18
2018-02-21T11:50:50.546Z,5.13
2018-02-21T11:51:50.557Z,5.19
2018-02-21T11:52:50.570Z,5.12
2018-02-21T11:53:50.591Z,5.20
2018-02-21T11:54:50.598Z,5.16
2018-02-21T11:55:50.637Z,5.16
2018-02-21T11:56:50.624Z,5.20
2018-02-21T11:57:50.635Z,5.16
2018-02-21T11:58:50.675Z,5.12
2018-02-21T11:59:50.666Z,5.22
2018-02-21T12:00:50.696Z,5.10
2018-02-21T12:01:50.701Z,5.05
2018-02-21T12:02:50.720Z,5.13
2018-02-21T12:03:50.734Z,5.07
2018-02-21T12:04:50.828Z,4.98
2018-02-21T12:05:50.754Z,4.98
2018-02-21T12:06:50.767Z,5.00
2018-02-21T12:07:50.784Z,4.95
2018-02-21T12:08:50.797Z,4.95
2018-02-21T12:09:50.818Z,5.00
2018-02-21T12:10:50.828Z,4.89
2018-02-21T12:11:50.842Z,4.89
2018-02-21T12:12:50.855Z,4.82
2018-02-21T12:13:50.865Z,4.89
2018-02-21T12:14:50.894Z,4.90
2018-02-21T12:15:50.893Z,4.90
2018-02-21T12:16:50.918Z,4.90
2018-02-21T12:17:50.927Z,4.94
2018-02-21T12:18:50.935Z,4.92
2018-02-21T12:19:50.961Z,5.00
2018-02-21T12:20:50.968Z,5.00
2018-02-21T12:21:50.986Z,5.05
2018-02-21T12:22:51.014Z,5.10
2018-02-21T12:23:51.002Z,5.13
2018-02-21T12:24:51.030Z,5.22
2018-02-21T12:25:51.042Z,5.23
2018-02-21T12:26:51.052Z,5.28
2018-02-21T12:27:51.075Z,5.33
2018-02-21T12:28:51.085Z,5.36
2018-02-21T12:29:51.094Z,5.47
2018-02-21T12:30:51.121Z,5.49
2018-02-21T12:31:51.126Z,5.44
2018-02-21T12:32:51.159Z,5.38
2018-02-21T12:33:51.156Z,5.36
2018-02-21T12:34:51.212Z,5.33
2018-02-21T12:35:51.189Z,5.38
2018-02-21T12:36:51.194Z,5.38
2018-02-21T12:37:51.219Z,5.43
2018-02-21T12:38:51.228Z,5.41
2018-02-21T12:39:51.245Z,5.51
2018-02-21T12:40:51.259Z,5.47
2018-02-21T12:41:51.284Z,5.47
2018-02-21T12:42:51.285Z,5.55
2018-02-21T12:43:51.308Z,5.52
2018-02-21T12:44:51.326Z,5.46
2018-02-21T12:45:51.334Z,5.58
2018-02-21T12:46:51.348Z,5.59
2018-02-21T12:47:51.355Z,5.67
2018-02-21T12:48:51.386Z,5.64
2018-02-21T12:49:51.389Z,5.69
2018-02-21T12:50:51.406Z,5.61
2018-02-21T12:51:51.431Z,5.76
2018-02-21T12:52:51.444Z,5.59
2018-02-21T12:53:51.455Z,5.64
2018-02-21T12:54:51.479Z,5.64
2018-02-21T12:55:51.473Z,5.73
2018-02-21T12:56:51.497Z,5.76
2018-02-21T12:57:51.508Z,5.79
2018-02-21T12:58:51.525Z,5.80
2018-02-21T12:59:51.546Z,5.84
2018-02-21T13:00:51.562Z,5.88
2018-02-21T13:01:51.572Z,5.94